createdAt,value
2018-05-13T00:00:35.429Z,15.50
2018-05-13T00:01:38.424Z,15.50
2018-05-13T00:02:40.933Z,15.50
2018-05-13T00:03:43.431Z,15.60
2018-05-13T00:04:45.934Z,15.60
2018-05-13T00:05:48.684Z,15.60
2018-05-13T00:06:51.190Z,15.50
2018-05-13T00:07:53.693Z,15.50
2018-05-13T00:08:56.956Z,15.50
2018-05-13T00:09:59.477Z,15.50
2018-05-13T00:11:01.982Z,15.60
2018-05-13T00:12:04.477Z,15.60
2018-05-13T00:13:06.985Z,15.50
2018-05-13T00:14:09.512Z,15.50
2018-05-13T00:15:12.054Z,15.60
2018-05-13T00:16:14.739Z,15.60
2018-05-13T00:17:17.257Z,15.60
2018-05-13T00:18:20.520Z,15.60
2018-05-13T00:19:23.020Z,15.60
2018-05-13T00:20:25.536Z,15.60
2018-05-13T00:21:28.053Z,15.60
2018-05-13T00:22:31.314Z,15.60
2018-05-13T00:23:33.838Z,15.60
2018-05-13T00:24:36.335Z,15.60
2018-05-13T00:25:38.874Z,15.60
2018-05-13T00:26:41.397Z,15.60
2018-05-13T00:27:43.905Z,15.60
2018-05-13T00:28:46.408Z,15.60
2018-05-13T00:29:48.905Z,15.60
2018-05-13T00:30:51.480Z,15.60
2018-05-13T00:31:53.983Z,15.60
2018-05-13T00:32:57.263Z,15.60
2018-05-13T00:34:00.540Z,15.60
2018-05-13T00:35:03.861Z,15.60
2018-05-13T00:36:06.430Z,15.60
2018-05-13T00:37:08.955Z,15.60
2018-05-13T00:38:11.480Z,15.60
2018-05-13T00:39:13.970Z,15.60
2018-05-13T00:40:16.484Z,15.60
2018-05-13T00:41:19.007Z,15.60
2018-05-13T00:42:21.525Z,15.60
2018-05-13T00:43:24.806Z,15.60
2018-05-13T00:44:27.368Z,15.50
2018-05-13T00:45:29.952Z,15.60
2018-05-13T00:46:32.472Z,15.60
2018-05-13T00:47:35.008Z,15.60
2018-05-13T00:48:38.277Z,15.50
2018-05-13T00:49:40.785Z,15.50
2018-05-13T00:50:43.381Z,15.50
2018-05-13T00:51:45.903Z,15.50
2018-05-13T00:52:49.186Z,15.50
2018-05-13T00:53:51.684Z,15.50
2018-05-13T00:54:56.048Z,15.50
2018-05-13T00:55:58.555Z,15.50
2018-05-13T00:57:01.832Z,15.50
2018-05-13T00:58:05.136Z,15.50
2018-05-13T00:59:08.405Z,15.50
2018-05-13T01:00:12.413Z,15.50
2018-05-13T01:01:15.667Z,15.50
2018-05-13T01:02:18.179Z,15.50
2018-05-13T01:03:21.445Z,15.40
2018-05-13T01:04:23.951Z,15.40
2018-05-13T01:05:26.476Z,15.40
2018-05-13T01:06:28.975Z,15.40
2018-05-13T01:07:32.248Z,15.40
2018-05-13T01:08:34.741Z,15.40
2018-05-13T01:09:38.009Z,15.40
2018-05-13T01:10:40.550Z,15.40
2018-05-13T01:11:43.079Z,15.40
2018-05-13T01:12:45.604Z,15.40
2018-05-13T01:13:48.108Z,15.40
2018-05-13T01:14:51.366Z,15.40
2018-05-13T01:15:53.865Z,15.40
2018-05-13T01:16:57.128Z,15.40
2018-05-13T01:17:59.749Z,15.40
2018-05-13T01:19:02.248Z,15.30
2018-05-13T01:20:04.741Z,15.30
2018-05-13T01:21:07.252Z,15.30
2018-05-13T01:22:10.523Z,15.30
2018-05-13T01:23:13.842Z,15.30
2018-05-13T01:24:16.345Z,15.30
2018-05-13T01:25:18.874Z,15.30
2018-05-13T01:26:21.369Z,15.30
2018-05-13T01:27:23.864Z,15.30
2018-05-13T01:28:26.408Z,15.30
2018-05-13T01:29:28.930Z,15.30
2018-05-13T01:30:31.440Z,15.20
2018-05-13T01:31:33.946Z,15.30
2018-05-13T01:32:36.446Z,15.30
2018-05-13T01:33:39.711Z,15.30
2018-05-13T01:34:42.218Z,15.20
2018-05-13T01:35:44.749Z,15.20
2018-05-13T01:36:48.034Z,15.20
2018-05-13T01:37:50.533Z,15.20
2018-05-13T01:38:53.812Z,15.20
2018-05-13T01:39:57.089Z,15.20
2018-05-13T01:40:59.600Z,15.10
2018-05-13T01:42:02.107Z,15.20
2018-05-13T01:43:04.632Z,15.10
2018-05-13T01:44:07.907Z,15.10
2018-05-13T01:45:11.201Z,15.10
2018-05-13T01:46:14.473Z,15.10
2018-05-13T01:47:16.982Z,15.10
2018-05-13T01:48:19.491Z,15.10
2018-05-13T01:49:21.994Z,15.10
2018-05-13T01:50:25.268Z,15.10
2018-05-13T01:51:27.784Z,15.10
2018-05-13T01:52:30.293Z,15.10
2018-05-13T01:53:32.829Z,15.10
2018-05-13T01:54:35.318Z,15.10
2018-05-13T01:55:37.829Z,15.10
2018-05-13T01:56:40.325Z,15.10
2018-05-13T01:57:42.860Z,15.10
2018-05-13T01:58:45.413Z,15.20
2018-05-13T01:59:47.897Z,15.20
2018-05-13T02:00:50.380Z,15.20
2018-05-13T02:01:52.995Z,15.20
2018-05-13T02:02:55.495Z,15.20
2018-05-13T02:03:58.012Z,15.20
2018-05-13T02:05:01.298Z,15.10
2018-05-13T02:06:04.566Z,15.10
2018-05-13T02:07:07.067Z,15.10
2018-05-13T02:08:10.382Z,15.10
2018-05-13T02:09:12.927Z,15.10
2018-05-13T02:10:15.465Z,15.10
2018-05-13T02:11:17.977Z,15.10
2018-05-13T02:12:20.475Z,15.10
2018-05-13T02:13:22.981Z,15.10
2018-05-13T02:14:26.270Z,15.10
2018-05-13T02:15:28.796Z,15.10
2018-05-13T02:16:31.302Z,15.10
2018-05-13T02:17:33.817Z,15.10
2018-05-13T02:18:36.325Z,15.10
2018-05-13T02:19:38.837Z,15.10
2018-05-13T02:20:42.141Z,15.10
2018-05-13T02:21:44.628Z,15.10
2018-05-13T02:22:47.122Z,15.10
2018-05-13T02:23:49.621Z,15.10
2018-05-13T02:24:52.134Z,15.10
2018-05-13T02:25:54.630Z,15.10
2018-05-13T02:26:57.127Z,15.10
2018-05-13T02:27:59.618Z,15.10
2018-05-13T02:29:02.887Z,15.10
2018-05-13T02:30:05.418Z,15.10
2018-05-13T02:31:07.951Z,15.10
2018-05-13T02:32:11.280Z,15.10
2018-05-13T02:33:13.771Z,15.10
2018-05-13T02:34:16.265Z,15.10
2018-05-13T02:35:19.554Z,15.10
2018-05-13T02:36:22.828Z,15.10
2018-05-13T02:37:25.333Z,15.10
2018-05-13T02:38:27.846Z,15.10
2018-05-13T02:39:30.356Z,15.10
2018-05-13T02:40:33.636Z,15.10
2018-05-13T02:41:36.126Z,15.10
2018-05-13T02:42:39.417Z,15.20
2018-05-13T02:43:42.693Z,15.20
2018-05-13T02:44:45.971Z,15.20
2018-05-13T02:45:48.520Z,15.20
2018-05-13T02:46:51.025Z,15.20
2018-05-13T02:47:54.344Z,15.30
2018-05-13T02:48:57.574Z,15.30
2018-05-13T02:50:00.082Z,15.30
2018-05-13T02:51:02.592Z,15.30
2018-05-13T02:52:05.089Z,15.30
2018-05-13T02:53:07.622Z,15.40
2018-05-13T02:54:10.122Z,15.40
2018-05-13T02:55:12.635Z,15.30
2018-05-13T02:56:15.913Z,14.90
2018-05-13T02:57:19.172Z,14.80
2018-05-13T02:58:21.660Z,14.80
2018-05-13T02:59:24.161Z,14.70
2018-05-13T03:00:26.671Z,14.70
2018-05-13T03:01:29.201Z,14.60
2018-05-13T03:02:31.701Z,14.60
2018-05-13T03:03:34.202Z,14.60
2018-05-13T03:04:36.691Z,14.60
2018-05-13T03:05:39.978Z,14.60
2018-05-13T03:06:43.260Z,14.60
2018-05-13T03:07:46.518Z,14.60
2018-05-13T03:08:48.998Z,14.60
2018-05-13T03:09:51.500Z,14.60
2018-05-13T03:10:54.789Z,14.70
2018-05-13T03:11:58.044Z,14.70
2018-05-13T03:13:00.545Z,14.70
2018-05-13T03:14:03.808Z,14.70
2018-05-13T03:15:06.299Z,14.70
2018-05-13T03:16:08.827Z,14.80
2018-05-13T03:17:11.361Z,14.80
2018-05-13T03:18:14.621Z,14.80
2018-05-13T03:19:17.132Z,14.70
2018-05-13T03:20:19.641Z,14.80
2018-05-13T03:21:22.138Z,14.80
2018-05-13T03:22:24.646Z,14.80
2018-05-13T03:23:27.145Z,14.80
2018-05-13T03:24:29.643Z,14.80
2018-05-13T03:25:32.165Z,14.80
2018-05-13T03:26:34.667Z,14.80
2018-05-13T03:27:37.186Z,14.80
2018-05-13T03:28:39.694Z,14.90
2018-05-13T03:29:42.195Z,14.90
2018-05-13T03:30:44.719Z,14.90
2018-05-13T03:31:47.218Z,15.00
2018-05-13T03:32:49.749Z,15.00
2018-05-13T03:33:52.248Z,15.00
2018-05-13T03:34:54.752Z,15.00
2018-05-13T03:35:57.264Z,15.10
2018-05-13T03:36:59.763Z,15.10
2018-05-13T03:38:02.274Z,15.10
2018-05-13T07:21:46.415Z,24.40
2018-05-13T07:22:50.008Z,24.10
2018-05-13T07:23:53.279Z,24.20
2018-05-13T07:24:55.781Z,24.20
2018-05-13T07:25:59.067Z,24.70
2018-05-13T07:27:01.601Z,24.70
2018-05-13T07:28:04.122Z,24.80
2018-05-13T07:29:06.648Z,24.60
2018-05-13T07:30:09.159Z,24.50
2018-05-13T07:31:11.691Z,24.80
2018-05-13T07:32:14.266Z,24.90
2018-05-13T07:33:16.763Z,24.90
2018-05-13T07:34:19.274Z,25.10
2018-05-13T07:35:21.778Z,25.20
2018-05-13T07:36:24.289Z,25.80
2018-05-13T07:37:27.569Z,26.40
2018-05-13T07:38:30.865Z,26.40
2018-05-13T07:39:34.128Z,26.50
2018-05-13T07:40:36.632Z,26.50
2018-05-13T07:41:39.893Z,26.80
2018-05-13T07:42:43.905Z,27.00
2018-05-13T07:43:46.404Z,27.00
2018-05-13T07:44:49.659Z,27.20
2018-05-13T07:45:52.177Z,27.20
2018-05-13T07:46:54.685Z,27.60
2018-05-13T07:47:57.213Z,27.70
2018-05-13T07:48:59.712Z,27.80
2018-05-13T07:50:02.231Z,28.20
2018-05-13T07:51:05.514Z,27.90
2018-05-13T07:52:08.784Z,27.90
2018-05-13T07:53:11.390Z,27.90
2018-05-13T07:54:14.699Z,28.10
2018-05-13T07:55:17.210Z,28.10
2018-05-13T07:56:19.728Z,28.20
2018-05-13T07:57:22.230Z,28.30
2018-05-13T07:58:24.750Z,28.50
2018-05-13T07:59:27.266Z,28.80
2018-05-13T08:00:29.821Z,28.70
2018-05-13T08:01:32.321Z,28.90
2018-05-13T08:02:34.834Z,28.70
2018-05-13T08:03:38.149Z,28.10
2018-05-13T08:04:40.683Z,28.10
2018-05-13T08:05:43.200Z,28.30
2018-05-13T08:06:45.747Z,28.20
2018-05-13T08:07:49.043Z,27.60
2018-05-13T08:08:51.616Z,27.60
2018-05-13T08:09:54.135Z,27.80
2018-05-13T08:10:56.670Z,27.60
2018-05-13T08:11:59.196Z,27.40
2018-05-13T08:13:01.694Z,27.60
2018-05-13T08:14:04.269Z,27.80
2018-05-13T08:15:07.515Z,27.60
2018-05-13T08:16:10.059Z,27.60
2018-05-13T08:17:13.373Z,27.70
2018-05-13T08:18:15.884Z,27.70
2018-05-13T08:19:18.415Z,27.80
2018-05-13T08:20:21.048Z,28.00
2018-05-13T08:21:23.466Z,27.40
2018-05-13T08:22:25.982Z,27.90
2018-05-13T08:23:28.511Z,28.30
2018-05-13T08:24:31.835Z,28.90
2018-05-13T08:25:34.339Z,28.90
2018-05-13T08:26:36.863Z,28.90
2018-05-13T08:27:39.377Z,29.10
2018-05-13T08:28:41.885Z,29.30
2018-05-13T08:29:44.406Z,29.70
2018-05-13T08:30:46.927Z,29.60
2018-05-13T08:31:49.439Z,29.60
2018-05-13T08:32:51.972Z,29.10
2018-05-13T08:33:55.232Z,29.10
2018-05-13T08:34:57.811Z,29.10
2018-05-13T08:36:00.335Z,29.20
2018-05-13T08:37:02.877Z,29.60
2018-05-13T08:38:06.167Z,30.10
2018-05-13T08:39:09.448Z,30.20
2018-05-13T08:40:12.738Z,30.40
2018-05-13T08:41:16.030Z,30.00
2018-05-13T08:42:19.340Z,29.80
2018-05-13T08:43:21.853Z,29.80
2018-05-13T08:44:24.395Z,29.80
2018-05-13T08:45:27.064Z,30.00
2018-05-13T08:46:29.592Z,30.00
2018-05-13T08:47:32.113Z,30.10
2018-05-13T08:48:34.711Z,30.30
2018-05-13T08:49:37.915Z,29.30
2018-05-13T08:50:40.436Z,29.30
2018-05-13T08:51:42.946Z,29.10
2018-05-13T08:52:45.481Z,28.70
2018-05-13T08:53:48.001Z,28.50
2018-05-13T08:54:50.521Z,28.40
2018-05-13T08:55:53.023Z,28.50
2018-05-13T08:56:55.516Z,28.20
2018-05-13T08:57:58.034Z,28.50
2018-05-13T08:59:00.556Z,28.70
2018-05-13T09:00:03.166Z,28.50
2018-05-13T09:01:05.697Z,29.00
2018-05-13T09:02:08.305Z,29.10
2018-05-13T09:03:10.874Z,29.20
2018-05-13T09:04:13.408Z,29.40
2018-05-13T09:05:15.940Z,28.80
2018-05-13T09:06:18.524Z,28.70
2018-05-13T09:07:21.161Z,28.80
2018-05-13T09:08:23.758Z,28.70
2018-05-13T09:09:27.015Z,28.70
2018-05-13T09:10:29.528Z,28.70
2018-05-13T09:11:32.046Z,28.00
2018-05-13T09:12:35.326Z,28.00
2018-05-13T09:13:38.599Z,28.00
2018-05-13T09:14:41.124Z,27.90
2018-05-13T09:15:43.690Z,27.90
2018-05-13T09:16:46.230Z,27.90
2018-05-13T09:17:49.518Z,28.00
2018-05-13T09:18:52.801Z,28.20
2018-05-13T09:19:56.120Z,28.60
2018-05-13T09:20:58.680Z,28.50
2018-05-13T09:22:01.182Z,28.70
2018-05-13T09:23:03.708Z,29.00
2018-05-13T09:24:06.991Z,29.60
2018-05-13T09:25:09.511Z,29.60
2018-05-13T09:26:12.074Z,29.50
2018-05-13T09:27:14.610Z,29.40
2018-05-13T09:28:17.893Z,29.80
2018-05-13T09:29:20.401Z,29.80
2018-05-13T09:30:22.938Z,29.90
2018-05-13T09:31:26.219Z,29.60
2018-05-13T09:32:28.755Z,29.60
2018-05-13T09:33:31.400Z,29.40
2018-05-13T09:34:33.917Z,29.50
2018-05-13T09:35:36.463Z,29.60
2018-05-13T09:36:38.988Z,29.00
2018-05-13T09:37:42.274Z,28.40
2018-05-13T09:38:45.557Z,28.20
2018-05-13T09:39:48.850Z,27.80
2018-05-13T09:40:52.132Z,28.10
2018-05-13T09:41:54.633Z,28.00
2018-05-13T09:42:57.196Z,27.90
2018-05-13T09:43:59.709Z,28.10
2018-05-13T09:45:02.208Z,28.30
2018-05-13T09:46:06.239Z,27.70
2018-05-13T09:47:09.645Z,27.70
2018-05-13T09:48:12.179Z,27.70
2018-05-13T09:49:14.708Z,27.60
2018-05-13T09:50:17.221Z,27.80
2018-05-13T09:51:19.823Z,27.80
2018-05-13T09:53:50.571Z,27.70
2018-05-13T09:54:53.090Z,28.10
2018-05-13T09:55:55.617Z,28.40
2018-05-13T09:56:58.149Z,28.30
2018-05-13T09:58:01.444Z,27.90
2018-05-13T09:59:04.772Z,28.10
2018-05-13T10:00:07.336Z,28.00
2018-05-13T10:01:10.471Z,28.10
2018-05-13T10:02:13.006Z,28.10
2018-05-13T10:03:15.563Z,28.40
2018-05-13T10:04:18.086Z,28.40
2018-05-13T10:05:20.625Z,28.30
2018-05-13T10:06:23.173Z,28.00
2018-05-13T10:07:25.716Z,27.80
2018-05-13T10:08:29.045Z,27.30
2018-05-13T10:09:31.672Z,27.30
2018-05-13T10:10:34.149Z,27.10
2018-05-13T10:11:37.437Z,27.40
2018-05-13T10:12:40.723Z,27.60
2018-05-13T10:13:43.259Z,27.60
2018-05-13T10:14:45.802Z,27.50
2018-05-13T10:15:48.341Z,27.40
2018-05-13T10:16:51.629Z,27.50
2018-05-13T10:17:54.919Z,27.10
2018-05-13T10:18:58.225Z,26.90
2018-05-13T10:20:00.814Z,26.90
2018-05-13T10:21:03.379Z,27.00
2018-05-13T10:22:05.950Z,26.90
2018-05-13T10:23:08.474Z,26.50
2018-05-13T10:24:11.054Z,26.40
2018-05-13T10:25:13.613Z,26.50
2018-05-13T10:26:16.906Z,26.50
2018-05-13T10:27:20.955Z,26.50
2018-05-13T10:28:24.239Z,26.40
2018-05-13T10:29:26.776Z,26.40
2018-05-13T10:30:29.282Z,26.30
2018-05-13T10:31:31.830Z,26.40
2018-05-13T10:32:34.369Z,26.30
2018-05-13T10:33:36.897Z,26.30
2018-05-13T10:34:40.213Z,26.50
2018-05-13T10:35:42.736Z,26.50
2018-05-13T10:36:46.018Z,26.40
2018-05-13T10:37:48.537Z,26.40
2018-05-13T10:38:51.045Z,26.40
2018-05-13T10:39:55.088Z,26.30
2018-05-13T10:40:57.630Z,26.30
2018-05-13T10:42:00.180Z,26.20
2018-05-13T10:43:02.816Z,26.20
2018-05-13T10:44:05.332Z,26.20
2018-05-13T10:45:07.870Z,26.00
2018-05-13T10:46:10.440Z,26.00
2018-05-13T10:47:13.022Z,26.00
2018-05-13T10:48:15.528Z,25.80
2018-05-13T10:49:18.044Z,25.80
2018-05-13T10:50:20.705Z,26.00
2018-05-13T10:51:23.232Z,26.00
2018-05-13T10:52:25.745Z,26.00
2018-05-13T10:53:28.321Z,26.00
2018-05-13T10:54:30.904Z,25.80
2018-05-13T10:55:33.467Z,25.70
2018-05-13T10:56:36.036Z,25.70
2018-05-13T10:57:38.563Z,25.60
2018-05-13T10:58:41.103Z,25.60
2018-05-13T10:59:43.616Z,25.50
2018-05-13T11:00:46.150Z,25.50
2018-05-13T11:01:48.679Z,25.40
2018-05-13T11:02:51.964Z,25.30
2018-05-13T11:03:55.245Z,25.40
2018-05-13T11:04:58.532Z,25.50
2018-05-13T11:06:01.056Z,25.50
2018-05-13T11:07:03.608Z,25.50
2018-05-13T11:08:06.391Z,25.70
2018-05-13T11:09:08.914Z,25.90
2018-05-13T11:10:12.299Z,26.20
2018-05-13T11:11:14.769Z,26.20
2018-05-13T11:12:17.274Z,26.30
2018-05-13T11:13:19.795Z,26.30
2018-05-13T11:14:23.236Z,26.40
2018-05-13T11:15:25.798Z,26.40
2018-05-13T11:16:28.373Z,26.60
2018-05-13T11:17:31.031Z,26.80
2018-05-13T11:18:33.724Z,27.00
2018-05-13T11:19:36.249Z,27.30
2018-05-13T11:20:38.807Z,27.30
2018-05-13T11:21:41.368Z,27.30
2018-05-13T11:22:43.889Z,27.30
2018-05-13T11:23:47.259Z,27.40
2018-05-13T11:24:49.774Z,27.30
2018-05-13T11:25:52.337Z,27.30
2018-05-13T11:26:54.961Z,27.40
2018-05-13T11:27:58.202Z,27.30
2018-05-13T11:29:00.719Z,27.30
2018-05-13T11:30:03.263Z,27.50
2018-05-13T11:31:05.803Z,27.40
2018-05-13T11:32:09.078Z,27.30
2018-05-13T11:33:11.595Z,27.30
2018-05-13T11:34:14.102Z,27.30
2018-05-13T11:35:16.799Z,27.30
2018-05-13T11:36:20.111Z,26.90
2018-05-13T11:37:22.621Z,26.90
2018-05-13T11:38:25.131Z,26.90
2018-05-13T11:39:28.425Z,26.80
2018-05-13T11:40:31.698Z,26.80
2018-05-13T11:41:34.247Z,26.80
2018-05-13T11:42:36.756Z,26.70
2018-05-13T11:43:40.057Z,26.70
2018-05-13T11:44:42.594Z,26.80
2018-05-13T11:45:45.120Z,26.60
2018-05-13T11:46:47.721Z,26.60
2018-05-13T11:47:50.179Z,26.90
2018-05-13T11:48:52.702Z,26.90
2018-05-13T11:49:55.999Z,26.70
2018-05-13T11:50:58.523Z,26.60
2018-05-13T11:52:02.560Z,26.80
2018-05-13T11:53:05.151Z,26.80
2018-05-13T11:54:07.683Z,26.90
2018-05-13T11:55:11.040Z,26.90
2018-05-13T11:56:13.576Z,26.80
2018-05-13T11:57:16.104Z,26.80
2018-05-13T11:58:18.604Z,26.50
2018-05-13T11:59:21.889Z,26.30
2018-05-13T12:00:25.171Z,26.20
2018-05-13T12:01:27.682Z,26.20
2018-05-13T12:02:30.293Z,26.10
2018-05-13T12:03:32.785Z,26.10
2018-05-13T12:04:36.078Z,26.20
2018-05-13T12:05:39.352Z,26.20
2018-05-13T12:06:41.867Z,26.20
2018-05-13T12:07:44.413Z,26.20
2018-05-13T12:08:47.695Z,26.20
2018-05-13T12:09:50.983Z,26.40
2018-05-13T12:10:54.270Z,26.40
2018-05-13T12:11:57.558Z,26.20
2018-05-13T12:13:00.878Z,26.20
2018-05-13T12:14:03.419Z,26.20
2018-05-13T12:15:06.810Z,26.00
2018-05-13T12:16:09.241Z,26.00
2018-05-13T12:17:11.795Z,26.00
2018-05-13T12:18:14.332Z,26.00
2018-05-13T12:19:17.605Z,26.00
2018-05-13T12:20:20.902Z,25.80
2018-05-13T12:21:24.168Z,25.70
2018-05-13T12:22:26.720Z,25.70
2018-05-13T12:23:29.231Z,25.70
2018-05-13T12:24:32.557Z,25.70
2018-05-13T12:25:35.093Z,25.70
2018-05-13T12:26:38.381Z,25.70
2018-05-13T12:27:41.672Z,25.60
2018-05-13T12:28:44.992Z,25.70
2018-05-13T12:29:47.480Z,25.70
2018-05-13T12:30:50.004Z,25.60
2018-05-13T12:31:52.535Z,25.60
2018-05-13T12:32:55.102Z,25.40
2018-05-13T12:33:57.645Z,25.40
2018-05-13T12:35:00.172Z,25.50
2018-05-13T12:36:03.479Z,25.50
2018-05-13T12:37:06.063Z,25.50
2018-05-13T12:38:08.650Z,25.60
2018-05-13T12:39:11.931Z,25.80
2018-05-13T12:40:14.458Z,25.80
2018-05-13T12:41:17.734Z,26.00
2018-05-13T12:42:20.247Z,26.00
2018-05-13T12:43:22.769Z,26.20
2018-05-13T12:44:25.293Z,26.30
2018-05-13T12:45:27.836Z,26.30
2018-05-13T12:46:31.256Z,26.40
2018-05-13T12:47:33.838Z,26.30
2018-05-13T12:48:36.386Z,26.40
2018-05-13T12:49:39.684Z,26.40
2018-05-13T12:50:42.227Z,26.40
2018-05-13T12:51:44.774Z,26.50
2018-05-13T12:52:47.286Z,26.60
2018-05-13T12:53:50.566Z,26.50
2018-05-13T12:54:53.113Z,26.50
2018-05-13T12:55:55.736Z,26.20
2018-05-13T12:56:58.250Z,26.30
2018-05-13T12:58:00.751Z,26.30
2018-05-13T12:59:03.378Z,26.20
2018-05-13T13:00:05.930Z,26.20
2018-05-13T13:01:08.429Z,26.00
2018-05-13T13:02:11.003Z,26.10
2018-05-13T13:03:13.535Z,26.00
2018-05-13T13:04:16.046Z,26.10
2018-05-13T13:05:18.582Z,26.10
2018-05-13T13:37:14.292Z,16.90
2018-05-13T13:38:16.827Z,16.80
2018-05-13T13:39:19.331Z,16.80
2018-05-13T13:40:23.367Z,16.80
2018-05-13T13:41:25.892Z,16.70
2018-05-13T13:42:28.406Z,16.80
2018-05-13T13:43:31.732Z,16.80
2018-05-13T13:44:34.238Z,16.80
2018-05-13T13:45:36.757Z,16.80
2018-05-13T13:46:39.284Z,16.90
2018-05-13T13:47:41.810Z,16.90
2018-05-13T13:48:44.355Z,17.00
2018-05-13T13:49:47.655Z,17.00
2018-05-13T13:50:50.206Z,17.00
2018-05-13T13:51:53.467Z,16.90
2018-05-13T13:52:55.984Z,16.90
2018-05-13T13:53:58.499Z,16.80
2018-05-13T13:55:00.992Z,16.80
2018-05-13T13:56:03.495Z,16.80
2018-05-13T13:57:06.019Z,16.80
2018-05-13T13:58:08.517Z,16.70
2018-05-13T13:59:11.906Z,16.60
2018-05-13T14:00:15.188Z,16.70
2018-05-13T14:01:17.689Z,16.60
2018-05-13T14:02:20.184Z,16.60
2018-05-13T14:03:22.719Z,16.60
2018-05-13T14:04:25.975Z,16.60
2018-05-13T14:05:28.481Z,16.60
2018-05-13T14:06:31.025Z,16.60
2018-05-13T14:07:33.572Z,16.50
2018-05-13T14:08:36.118Z,16.50
2018-05-13T14:09:38.667Z,16.40
2018-05-13T14:10:42.514Z,16.40
2018-05-13T14:11:45.033Z,16.40
2018-05-13T14:12:48.279Z,16.40
2018-05-13T14:13:50.829Z,16.40
2018-05-13T14:14:53.347Z,16.40
2018-05-13T14:15:56.626Z,16.30
2018-05-13T14:16:59.116Z,16.30
2018-05-13T14:18:01.768Z,16.10
2018-05-13T14:19:04.357Z,16.10
2018-05-13T14:20:06.922Z,16.00
2018-05-13T14:21:09.394Z,16.00
2018-05-13T14:22:11.977Z,16.00
2018-05-13T14:23:15.266Z,15.90
2018-05-13T14:24:17.778Z,15.90
2018-05-13T14:25:20.272Z,15.80
2018-05-13T14:26:22.795Z,15.80
2018-05-13T14:27:26.068Z,15.90
2018-05-13T14:28:29.352Z,15.90
2018-05-13T14:29:31.899Z,15.90
2018-05-13T14:30:34.409Z,15.80
2018-05-13T14:31:37.704Z,15.80
2018-05-13T14:32:40.195Z,15.80
2018-05-13T14:33:42.697Z,15.80
2018-05-13T14:34:45.235Z,15.80
2018-05-13T14:35:47.740Z,15.80
2018-05-13T14:36:50.226Z,15.90
2018-05-13T14:37:52.725Z,15.90
2018-05-13T14:38:55.218Z,15.90
2018-05-13T14:39:57.735Z,15.90
2018-05-13T14:41:00.325Z,15.90
2018-05-13T14:42:02.920Z,15.90
2018-05-13T14:43:05.473Z,15.90
2018-05-13T14:44:08.772Z,15.80
2018-05-13T14:45:12.208Z,15.80
2018-05-13T14:46:14.724Z,15.80
2018-05-13T14:47:18.005Z,15.80
2018-05-13T14:48:20.507Z,15.80
2018-05-13T14:49:23.022Z,15.80
2018-05-13T14:50:26.292Z,15.80
2018-05-13T14:51:28.831Z,15.80
2018-05-13T14:52:31.333Z,15.70
2018-05-13T14:53:33.897Z,15.70
2018-05-13T14:54:36.404Z,15.70
2018-05-13T14:55:38.938Z,15.70
2018-05-13T14:56:41.453Z,15.70
2018-05-13T14:57:43.963Z,15.60
2018-05-13T14:58:46.460Z,15.60
2018-05-13T14:59:48.981Z,15.50
2018-05-13T15:00:52.288Z,15.50
2018-05-13T15:01:54.801Z,15.50
2018-05-13T15:02:57.367Z,15.40
2018-05-13T15:03:59.901Z,15.40
2018-05-13T15:05:02.400Z,15.40
2018-05-13T15:06:04.935Z,15.40
2018-05-13T15:07:08.216Z,15.30
2018-05-13T15:08:11.588Z,15.30
2018-05-13T15:09:14.085Z,15.30
2018-05-13T15:10:16.575Z,15.30
2018-05-13T15:11:19.104Z,15.30
2018-05-13T15:12:21.604Z,15.30
2018-05-13T15:13:24.865Z,15.40
2018-05-13T15:14:27.463Z,15.30
2018-05-13T15:15:30.724Z,15.30
2018-05-13T15:16:33.341Z,15.30
2018-05-13T15:17:35.780Z,15.40
2018-05-13T15:18:39.077Z,15.40
2018-05-13T15:19:42.360Z,15.40
2018-05-13T15:20:45.659Z,15.40
2018-05-13T15:21:48.221Z,15.40
2018-05-13T15:22:50.750Z,15.40
2018-05-13T15:23:53.275Z,15.40
2018-05-13T15:24:55.811Z,15.40
2018-05-13T15:25:58.320Z,15.40
2018-05-13T15:27:00.840Z,15.50
2018-05-13T15:28:03.420Z,15.50
2018-05-13T15:29:06.029Z,15.60
2018-05-13T15:30:09.248Z,15.60
2018-05-13T15:31:12.554Z,15.60
2018-05-13T15:32:15.057Z,15.50
2018-05-13T15:33:17.611Z,15.60
2018-05-13T15:34:20.114Z,15.60
2018-05-13T15:35:22.636Z,15.60
2018-05-13T15:36:25.131Z,15.60
2018-05-13T15:37:27.650Z,15.60
2018-05-13T15:38:30.195Z,15.60
2018-05-13T15:39:32.733Z,15.60
2018-05-13T15:40:35.234Z,15.60
2018-05-13T15:41:37.728Z,15.60
2018-05-13T15:42:40.284Z,15.60
2018-05-13T15:43:42.779Z,15.50
2018-05-13T15:44:46.036Z,15.60
2018-05-13T15:45:48.557Z,15.60
2018-05-13T15:46:51.820Z,15.60
2018-05-13T15:47:54.322Z,15.60
2018-05-13T15:48:56.864Z,15.60
2018-05-13T15:49:59.363Z,15.60
2018-05-13T15:51:01.860Z,15.60
2018-05-13T15:52:04.426Z,15.70
2018-05-13T15:53:06.954Z,15.70
2018-05-13T15:54:10.549Z,15.80
2018-05-13T15:55:13.862Z,15.80
2018-05-13T15:56:16.364Z,15.80
2018-05-13T15:57:18.841Z,15.90
2018-05-13T15:58:21.344Z,15.90
2018-05-13T15:59:24.652Z,16.00
2018-05-13T16:00:27.991Z,16.10
2018-05-13T16:01:31.175Z,16.10
2018-05-13T16:02:33.677Z,16.10
2018-05-13T16:03:37.037Z,16.20
2018-05-13T16:04:39.573Z,16.10
2018-05-13T16:05:42.093Z,16.20
2018-05-13T16:06:44.613Z,16.20
2018-05-13T16:07:47.162Z,16.20
2018-05-13T16:21:49.712Z,16.20
2018-05-13T16:22:53.098Z,15.80
2018-05-13T16:23:55.584Z,15.80
2018-05-13T16:24:58.100Z,15.80
2018-05-13T16:26:00.627Z,15.80
2018-05-13T16:27:03.126Z,15.80
2018-05-13T16:28:05.695Z,15.80
2018-05-13T16:29:08.191Z,15.70
2018-05-13T16:30:10.896Z,15.70
2018-05-13T16:31:13.500Z,15.60
2018-05-13T16:32:16.003Z,15.50
2018-05-13T16:33:18.513Z,15.50
2018-05-13T16:34:21.770Z,15.50
2018-05-13T16:35:24.304Z,15.50
2018-05-13T16:36:26.829Z,15.50
2018-05-13T16:37:29.317Z,15.40
2018-05-13T16:38:31.986Z,15.50
2018-05-13T16:39:34.553Z,15.50
2018-05-13T16:40:37.857Z,15.50
2018-05-13T16:41:40.380Z,15.40
2018-05-13T16:42:42.886Z,15.50
2018-05-13T16:43:46.163Z,15.50
2018-05-13T16:44:49.409Z,15.50
2018-05-13T16:45:51.957Z,15.40
2018-05-13T16:46:54.469Z,15.50
2018-05-13T16:47:56.972Z,15.40
2018-05-13T16:49:00.240Z,15.40
2018-05-13T16:50:02.751Z,15.50
2018-05-13T16:51:05.277Z,15.40
2018-05-13T16:52:07.796Z,15.50
2018-05-13T16:53:10.420Z,15.50
2018-05-13T16:54:12.930Z,15.50
2018-05-13T16:55:15.436Z,15.50
2018-05-13T16:56:17.994Z,15.50
2018-05-13T16:57:20.494Z,15.50
2018-05-13T16:58:23.011Z,15.50
2018-05-13T16:59:25.592Z,15.60
2018-05-13T17:00:28.067Z,15.60
2018-05-13T17:01:30.671Z,15.60
2018-05-13T17:02:33.208Z,15.70
2018-05-13T17:03:35.665Z,15.70
2018-05-13T17:04:38.931Z,15.70
2018-05-13T17:05:41.427Z,15.70
2018-05-13T17:06:43.964Z,15.70
2018-05-13T17:07:46.491Z,15.80
2018-05-13T17:08:48.984Z,15.80
2018-05-13T17:09:51.500Z,15.90
2018-05-13T17:10:54.776Z,15.90
2018-05-13T17:11:57.341Z,15.90
2018-05-13T17:12:59.867Z,16.00
2018-05-13T17:14:02.351Z,16.00
2018-05-13T17:15:04.868Z,16.00
2018-05-13T17:16:08.180Z,16.10
2018-05-13T17:17:10.851Z,16.00
2018-05-13T17:18:13.414Z,16.10
2018-05-13T17:19:15.975Z,16.10
2018-05-13T17:20:18.467Z,16.10
2018-05-13T17:21:20.981Z,16.10
2018-05-13T17:22:24.249Z,16.20
2018-05-13T17:23:26.768Z,16.20
2018-05-13T17:24:29.272Z,16.30
2018-05-13T17:25:31.778Z,16.30
2018-05-13T17:26:34.279Z,16.40
2018-05-13T17:27:36.820Z,16.50
2018-05-13T17:28:39.366Z,16.50
2018-05-13T17:29:41.882Z,16.50
2018-05-13T17:30:44.430Z,16.60
2018-05-13T17:31:46.932Z,16.60
2018-05-13T17:32:49.480Z,16.60
2018-05-13T17:33:52.031Z,16.60
2018-05-13T17:34:54.559Z,16.50
2018-05-13T17:35:57.831Z,16.40
2018-05-13T17:37:00.327Z,16.40
2018-05-13T17:38:03.644Z,16.40
2018-05-13T17:39:06.145Z,16.40
2018-05-13T17:40:08.651Z,16.50
2018-05-13T17:41:12.265Z,16.50
2018-05-13T17:42:14.952Z,16.40
2018-05-13T17:43:17.492Z,16.40
2018-05-13T17:44:20.026Z,16.40
2018-05-13T17:45:22.536Z,16.50
2018-05-13T17:46:25.044Z,16.40
2018-05-13T17:47:27.556Z,16.40
2018-05-13T17:48:30.217Z,16.40
2018-05-13T17:49:32.785Z,16.40
2018-05-13T17:50:35.279Z,16.40
2018-05-13T17:51:37.809Z,16.40
2018-05-13T17:52:40.309Z,16.40
2018-05-13T17:53:43.608Z,16.00
2018-05-13T17:54:46.128Z,16.10
2018-05-13T17:55:48.628Z,16.00